createdAt,value
2022-10-07T00:01:12.653Z,3.10
2022-10-07T00:03:41.886Z,3.28
2022-10-07T00:06:13.803Z,3.40
2022-10-07T00:08:43.925Z,3.80
2022-10-07T00:11:15.129Z,3.72
2022-10-07T00:13:45.730Z,3.40
2022-10-07T00:16:16.520Z,4.18
2022-10-07T00:18:45.984Z,3.47
2022-10-07T00:21:17.415Z,3.70
2022-10-07T00:23:47.419Z,4.03
2022-10-07T00:26:20.067Z,4.22
2022-10-07T00:28:48.988Z,3.58
2022-10-07T00:31:19.529Z,3.72
2022-10-07T00:33:48.627Z,4.43
2022-10-07T00:36:19.831Z,3.70
2022-10-07T00:38:52.113Z,3.70
2022-10-07T00:41:23.916Z,3.20
2022-10-07T00:43:52.237Z,3.97
2022-10-07T00:46:29.927Z,3.63
2022-10-07T00:49:01.959Z,3.60
2022-10-07T00:51:31.363Z,4.10
2022-10-07T00:53:59.925Z,3.85
2022-10-07T00:56:29.810Z,3.05
2022-10-07T00:59:00.649Z,3.53
2022-10-07T01:01:28.761Z,4.18
2022-10-07T01:03:56.819Z,3.85
2022-10-07T01:06:25.496Z,3.88
2022-10-07T01:08:55.742Z,3.50
2022-10-07T01:11:41.824Z,3.53
2022-10-07T01:14:16.142Z,4.07
2022-10-07T01:16:54.178Z,4.38
2022-10-07T01:19:49.630Z,3.50
2022-10-07T01:22:34.269Z,3.73
2022-10-07T01:25:20.951Z,3.90
2022-10-07T01:27:56.233Z,4.53
2022-10-07T01:30:24.680Z,3.33
2022-10-07T01:32:59.842Z,4.25
2022-10-07T01:35:35.602Z,3.97
2022-10-07T01:38:08.242Z,3.90
2022-10-07T01:40:41.364Z,4.00
2022-10-07T01:43:11.486Z,4.53
2022-10-07T01:45:43.091Z,4.53
2022-10-07T01:48:11.377Z,3.60
2022-10-07T01:50:41.132Z,4.40
2022-10-07T01:53:29.022Z,4.38
2022-10-07T01:56:13.029Z,4.30
2022-10-07T01:58:57.701Z,4.93
2022-10-07T02:01:38.541Z,4.07
2022-10-07T02:04:25.904Z,3.80
2022-10-07T02:07:02.991Z,3.72
2022-10-07T02:09:37.550Z,3.70
2022-10-07T02:12:10.913Z,4.17
2022-10-07T02:14:46.674Z,4.35
2022-10-07T02:17:18.959Z,3.20
2022-10-07T02:19:53.880Z,4.05
2022-10-07T02:22:26.641Z,4.15
2022-10-07T02:24:59.642Z,4.35
2022-10-07T02:27:33.485Z,4.22
2022-10-07T02:30:09.491Z,4.03
2022-10-07T02:32:41.531Z,3.60
2022-10-07T02:35:17.530Z,4.22
2022-10-07T02:37:51.014Z,3.65
2022-10-07T02:40:19.575Z,3.75
2022-10-07T02:42:57.017Z,3.55
2022-10-07T02:45:33.861Z,3.42
2022-10-07T02:48:05.910Z,4.03
2022-10-07T02:50:40.704Z,3.28
2022-10-07T02:53:10.712Z,3.85
2022-10-07T02:55:39.268Z,4.18
2022-10-07T02:58:10.350Z,3.40
2022-10-07T03:00:44.557Z,3.88
2022-10-07T03:03:13.052Z,3.65
2022-10-07T03:05:42.278Z,3.30
2022-10-07T03:08:12.639Z,4.00
2022-10-07T03:10:40.722Z,3.42
2022-10-07T03:13:08.811Z,2.95
2022-10-07T03:15:42.095Z,3.67
2022-10-07T03:18:26.953Z,3.42
2022-10-07T03:20:56.329Z,2.92
2022-10-07T03:23:25.612Z,3.17
2022-10-07T03:25:54.778Z,3.05
2022-10-07T03:28:24.697Z,2.85
2022-10-07T03:30:54.232Z,3.00
2022-10-07T03:33:26.462Z,2.80
2022-10-07T03:35:55.022Z,3.90
2022-10-07T03:38:23.827Z,2.63
2022-10-07T03:40:52.146Z,2.67
2022-10-07T03:43:20.588Z,2.75
2022-10-07T03:45:52.272Z,2.63
2022-10-07T03:48:21.071Z,3.03
2022-10-07T03:50:57.075Z,3.15
2022-10-07T03:53:26.242Z,3.53
2022-10-07T03:55:54.564Z,2.35
2022-10-07T03:58:23.361Z,2.70
2022-10-07T04:00:52.283Z,3.25
2022-10-07T04:03:20.415Z,2.30
2022-10-07T04:06:01.047Z,3.30
2022-10-07T04:08:31.838Z,3.10
2022-10-07T04:11:02.250Z,2.92
2022-10-07T04:13:30.814Z,2.50
2022-10-07T04:15:59.540Z,2.17
2022-10-07T04:18:28.063Z,3.08
2022-10-07T04:21:00.699Z,3.15
2022-10-07T04:23:29.261Z,2.35
2022-10-07T04:25:58.064Z,2.92
2022-10-07T04:28:27.183Z,3.53
2022-10-07T04:30:56.029Z,2.55
2022-10-07T04:33:25.910Z,3.78
2022-10-07T04:35:53.995Z,3.97
2022-10-07T04:38:28.128Z,2.42
2022-10-07T04:40:57.119Z,2.93
2022-10-07T04:43:24.717Z,3.92
2022-10-07T04:45:55.320Z,2.50
2022-10-07T04:48:26.282Z,3.28
2022-10-07T04:50:55.443Z,2.63
2022-10-07T04:53:24.966Z,3.05
2022-10-07T04:55:53.408Z,3.17
2022-10-07T04:58:22.335Z,3.67
2022-10-07T05:00:52.408Z,2.60
2022-10-07T05:03:23.176Z,3.28
2022-10-07T05:05:52.835Z,3.58
2022-10-07T05:08:23.299Z,3.53
2022-10-07T05:10:57.519Z,3.03
2022-10-07T05:13:27.176Z,3.35
2022-10-07T05:15:56.956Z,2.75
2022-10-07T05:18:27.509Z,3.65
2022-10-07T05:20:56.190Z,3.47
2022-10-07T05:23:28.616Z,3.72
2022-10-07T05:26:05.019Z,3.22
2022-10-07T05:28:33.202Z,3.90
2022-10-07T05:31:08.003Z,3.40
2022-10-07T05:33:36.884Z,3.47
2022-10-07T05:36:05.682Z,3.47
2022-10-07T05:38:34.483Z,3.00
2022-10-07T05:41:06.056Z,2.90
2022-10-07T05:43:38.688Z,3.08
2022-10-07T05:46:08.735Z,3.75
2022-10-07T05:48:39.602Z,4.07
2022-10-07T05:51:09.653Z,4.25
2022-10-07T05:53:41.356Z,3.50
2022-10-07T05:56:12.897Z,3.92
2022-10-07T05:58:40.988Z,3.47
2022-10-07T06:01:16.022Z,3.80
2022-10-07T06:03:44.715Z,3.40
2022-10-07T06:06:12.671Z,2.47
2022-10-07T06:08:41.234Z,3.00
2022-10-07T06:11:30.917Z,3.42
2022-10-07T06:13:59.837Z,3.10
2022-10-07T06:16:28.297Z,2.80
2022-10-07T06:18:57.083Z,3.55
2022-10-07T06:21:28.599Z,3.20
2022-10-07T06:23:58.761Z,3.00
2022-10-07T06:26:29.009Z,3.10
2022-10-07T06:28:56.970Z,3.30
2022-10-07T06:31:25.881Z,2.55
2022-10-07T06:33:55.652Z,2.83
2022-10-07T06:36:24.224Z,3.22
2022-10-07T06:38:53.736Z,3.03
2022-10-07T06:41:23.145Z,2.95
2022-10-07T06:43:57.102Z,3.17
2022-10-07T06:46:27.179Z,2.72
2022-10-07T06:48:55.424Z,3.00
2022-10-07T06:51:24.224Z,2.90
2022-10-07T06:53:54.116Z,3.03
2022-10-07T06:56:23.277Z,3.20
2022-10-07T06:58:54.376Z,2.50
2022-10-07T07:01:23.550Z,2.67
2022-10-07T07:03:51.601Z,3.70
2022-10-07T07:06:19.559Z,2.75
2022-10-07T07:08:50.419Z,3.15
2022-10-07T07:11:38.400Z,3.22
2022-10-07T07:14:09.396Z,3.53
2022-10-07T07:16:37.489Z,2.78
2022-10-07T07:19:09.064Z,3.90
2022-10-07T07:21:38.529Z,3.25
2022-10-07T07:24:07.812Z,3.45
2022-10-07T07:26:36.610Z,2.83
2022-10-07T07:29:08.174Z,4.00
2022-10-07T07:31:40.581Z,10.75
2022-10-07T07:34:13.222Z,6.00
2022-10-07T07:36:46.015Z,17.45
2022-10-07T07:39:15.632Z,11.73
2022-10-07T07:41:46.945Z,8.75
2022-10-07T07:44:18.388Z,8.07
2022-10-07T07:46:49.236Z,4.78
2022-10-07T07:49:17.914Z,8.73
2022-10-07T07:51:48.285Z,15.55
2022-10-07T07:54:18.156Z,14.88
2022-10-07T07:56:47.338Z,8.68
2022-10-07T07:59:17.799Z,4.18
2022-10-07T08:01:46.613Z,9.60
2022-10-07T08:04:17.227Z,6.50
2022-10-07T08:06:47.338Z,5.20
2022-10-07T08:09:16.757Z,3.85
2022-10-07T08:11:46.248Z,3.30
2022-10-07T08:14:18.226Z,3.75
2022-10-07T08:16:47.720Z,6.13
2022-10-07T08:19:16.034Z,4.80
2022-10-07T08:21:45.211Z,5.55
2022-10-07T08:24:15.311Z,3.63
2022-10-07T08:26:44.483Z,5.25
2022-10-07T08:29:13.871Z,3.25
2022-10-07T08:31:45.214Z,4.13
2022-10-07T08:34:14.469Z,3.65
2022-10-07T08:36:47.964Z,3.30
2022-10-07T08:39:17.595Z,4.25
2022-10-07T08:42:02.835Z,4.28
2022-10-07T08:44:34.548Z,3.60
2022-10-07T08:47:17.000Z,5.03
2022-10-07T08:49:56.025Z,3.78
2022-10-07T08:52:34.163Z,4.07
2022-10-07T08:55:03.460Z,4.55
2022-10-07T08:57:52.436Z,3.67
2022-10-07T09:00:25.048Z,3.80
2022-10-07T09:03:08.731Z,6.88
2022-10-07T09:05:43.670Z,2.83
2022-10-07T09:08:21.455Z,4.68
2022-10-07T09:10:53.891Z,4.25
2022-10-07T09:13:26.775Z,7.10
2022-10-07T09:16:01.254Z,8.38
2022-10-07T09:18:37.906Z,3.77
2022-10-07T09:21:13.580Z,3.90
2022-10-07T09:23:43.604Z,4.15
2022-10-07T09:26:14.287Z,4.65
2022-10-07T09:28:43.596Z,3.55
2022-10-07T09:31:16.631Z,3.95
2022-10-07T09:33:50.537Z,2.80
2022-10-07T09:36:20.054Z,3.28
2022-10-07T09:38:52.705Z,3.38
2022-10-07T09:41:29.044Z,3.10
2022-10-07T09:44:06.625Z,2.90
2022-10-07T09:46:48.324Z,2.75
2022-10-07T09:49:43.099Z,2.85
2022-10-07T09:52:20.063Z,3.13
2022-10-07T09:54:50.903Z,2.60
2022-10-07T09:57:32.700Z,3.25
2022-10-07T10:00:25.458Z,3.05
2022-10-07T10:03:01.218Z,2.75
2022-10-07T10:05:37.727Z,4.10
2022-10-07T10:08:09.527Z,2.65
2022-10-07T10:10:38.805Z,2.95
2022-10-07T10:13:08.432Z,2.95
2022-10-07T10:15:42.845Z,3.17
2022-10-07T10:18:31.614Z,3.45
2022-10-07T10:21:20.234Z,3.35
2022-10-07T10:23:51.294Z,2.38
2022-10-07T10:26:34.595Z,3.42
2022-10-07T10:29:19.749Z,3.75
2022-10-07T10:32:16.248Z,2.80
2022-10-07T10:34:54.546Z,2.65
2022-10-07T10:37:31.613Z,3.28
2022-10-07T10:40:09.655Z,3.13
2022-10-07T10:42:45.794Z,2.78
2022-10-07T10:45:27.059Z,2.00
2022-10-07T10:48:11.743Z,2.45
2022-10-07T10:50:52.866Z,2.35
2022-10-07T10:53:35.871Z,2.28
2022-10-07T10:56:16.749Z,2.00
2022-10-07T10:59:00.092Z,2.33
2022-10-07T11:01:37.128Z,2.83
2022-10-07T11:04:22.273Z,3.03
2022-10-07T11:06:56.731Z,2.30
2022-10-07T11:09:35.475Z,3.07
2022-10-07T11:12:07.797Z,2.40
2022-10-07T11:14:49.281Z,2.20
2022-10-07T11:17:20.005Z,2.75
2022-10-07T11:19:58.893Z,2.63
2022-10-07T11:22:35.744Z,2.55
2022-10-07T11:25:16.777Z,3.10
2022-10-07T11:27:48.579Z,3.17
2022-10-07T11:30:20.885Z,2.30
2022-10-07T11:32:56.666Z,2.28
2022-10-07T11:35:32.029Z,2.88
2022-10-07T11:40:40.206Z,2.88
2022-10-07T11:43:15.822Z,2.55
2022-10-07T11:45:52.910Z,2.88
2022-10-07T11:48:33.153Z,2.97
2022-10-07T11:51:05.931Z,3.28
2022-10-07T11:53:39.517Z,2.92
2022-10-07T11:56:24.005Z,3.45
2022-10-07T11:59:00.987Z,3.45
2022-10-07T12:01:48.913Z,4.05
2022-10-07T12:04:27.622Z,3.95
2022-10-07T12:07:34.224Z,3.60
2022-10-07T12:10:36.630Z,2.80
2022-10-07T12:13:41.892Z,3.75
2022-10-07T12:16:55.211Z,3.55
2022-10-07T12:19:24.404Z,2.97
2022-10-07T12:22:19.493Z,4.35
2022-10-07T12:25:11.559Z,4.22
2022-10-07T12:27:48.024Z,4.82
2022-10-07T12:30:42.987Z,4.55
2022-10-07T12:33:27.624Z,4.47
2022-10-07T12:35:57.649Z,4.07
2022-10-07T12:38:29.362Z,3.40
2022-10-07T12:41:32.368Z,3.63
2022-10-07T12:44:15.771Z,3.35
2022-10-07T12:46:48.280Z,4.00
2022-10-07T12:49:23.319Z,3.28
2022-10-07T12:51:55.871Z,3.92
2022-10-07T12:54:32.599Z,4.18
2022-10-07T12:57:04.496Z,3.13
2022-10-07T12:59:49.992Z,3.40
2022-10-07T13:02:51.770Z,3.13
2022-10-07T13:06:14.334Z,4.07
2022-10-07T13:09:28.501Z,3.70
2022-10-07T13:12:13.388Z,4.30
2022-10-07T13:14:54.195Z,3.47
2022-10-07T13:17:37.048Z,3.53
2022-10-07T13:20:18.786Z,4.50
2022-10-07T13:22:49.873Z,3.72
2022-10-07T13:25:22.393Z,4.22
2022-10-07T13:27:55.278Z,3.72
2022-10-07T13:30:41.650Z,2.78
2022-10-07T13:33:32.844Z,3.47
2022-10-07T13:36:13.279Z,2.20
2022-10-07T13:38:42.084Z,2.75
2022-10-07T13:41:26.973Z,2.88
2022-10-07T13:44:00.218Z,2.27
2022-10-07T13:46:33.326Z,2.53
2022-10-07T13:49:04.307Z,2.45
2022-10-07T13:51:37.212Z,1.75
2022-10-07T13:54:08.169Z,2.85
2022-10-07T13:56:42.599Z,2.38
2022-10-07T13:59:18.821Z,2.63
2022-10-07T14:01:52.830Z,2.30
2022-10-07T14:04:27.640Z,2.72
2022-10-07T14:07:00.607Z,3.00
2022-10-07T14:09:39.003Z,1.92
2022-10-07T14:12:12.841Z,1.98
2022-10-07T14:14:44.532Z,2.38
2022-10-07T14:17:24.982Z,2.30
2022-10-07T14:19:57.255Z,2.67
2022-10-07T14:22:33.483Z,2.35
2022-10-07T14:25:05.563Z,2.22
2022-10-07T14:27:55.461Z,2.30
2022-10-07T14:30:56.381Z,2.25
2022-10-07T14:34:01.476Z,2.10
2022-10-07T14:36:30.660Z,2.55
2022-10-07T14:39:00.027Z,2.10
2022-10-07T14:41:30.747Z,2.35
2022-10-07T14:44:00.641Z,2.67
2022-10-07T14:46:30.524Z,2.15
2022-10-07T14:49:02.086Z,2.40
2022-10-07T14:51:31.486Z,3.20
2022-10-07T14:54:06.196Z,2.22
2022-10-07T14:56:37.724Z,3.05
2022-10-07T14:59:08.915Z,3.70
2022-10-07T15:01:37.598Z,2.63
2022-10-07T15:04:08.317Z,2.67
2022-10-07T15:06:37.736Z,5.25
2022-10-07T15:09:06.795Z,9.68
2022-10-07T15:11:36.292Z,2.90
2022-10-07T15:14:05.211Z,10.02
2022-10-07T15:16:33.790Z,2.30
2022-10-07T15:19:03.539Z,3.05
2022-10-07T15:21:34.638Z,1.88
2022-10-07T15:24:03.540Z,2.42
2022-10-07T15:26:31.989Z,2.35
2022-10-07T15:29:02.712Z,2.25
2022-10-07T15:31:31.822Z,2.67
2022-10-07T15:34:00.588Z,1.90
2022-10-07T15:36:31.146Z,2.45
2022-10-07T15:39:02.301Z,1.90
2022-10-07T15:41:34.534Z,1.67
2022-10-07T15:44:05.951Z,2.00
2022-10-07T15:46:35.686Z,2.22
2022-10-07T15:49:05.675Z,2.03
2022-10-07T15:51:37.161Z,2.08
2022-10-07T15:54:08.376Z,2.00
2022-10-07T15:56:37.772Z,2.45
2022-10-07T15:59:06.699Z,2.55
2022-10-07T16:01:35.309Z,2.72
2022-10-07T16:04:06.131Z,2.75
2022-10-07T16:06:37.074Z,2.30
2022-10-07T16:09:08.493Z,1.98
2022-10-07T16:11:37.325Z,2.42
2022-10-07T16:14:06.129Z,2.78
2022-10-07T16:16:35.866Z,2.40
2022-10-07T16:19:05.319Z,2.30
2022-10-07T16:21:36.474Z,2.90
2022-10-07T16:24:09.890Z,3.88
2022-10-07T16:26:39.350Z,5.18
2022-10-07T16:29:28.076Z,3.72
2022-10-07T16:31:59.256Z,2.90
2022-10-07T16:34:29.274Z,3.28
2022-10-07T16:36:59.510Z,3.25
2022-10-07T16:39:29.752Z,2.28
2022-10-07T16:42:00.369Z,2.53
2022-10-07T16:44:29.894Z,2.08
2022-10-07T16:46:59.560Z,2.17
2022-10-07T16:49:30.898Z,1.90
2022-10-07T16:52:00.484Z,2.60
2022-10-07T16:54:32.435Z,2.20
2022-10-07T16:57:02.212Z,2.58
2022-10-07T16:59:31.477Z,1.88
2022-10-07T17:02:02.881Z,2.15
2022-10-07T17:04:32.216Z,2.08
2022-10-07T17:07:01.103Z,2.03
2022-10-07T17:09:31.474Z,1.88
2022-10-07T17:12:00.743Z,2.30
2022-10-07T17:14:31.826Z,2.47
2022-10-07T17:17:01.756Z,1.80
2022-10-07T17:19:38.960Z,2.17
2022-10-07T17:22:08.191Z,2.70
2022-10-07T17:24:38.328Z,2.05
2022-10-07T17:27:10.956Z,2.35
2022-10-07T17:29:39.694Z,2.08
2022-10-07T17:32:10.135Z,2.10
2022-10-07T17:34:41.971Z,2.05
2022-10-07T17:37:15.284Z,1.70
2022-10-07T17:39:45.476Z,1.63
2022-10-07T17:42:13.981Z,2.63
2022-10-07T17:44:44.105Z,1.67
2022-10-07T17:47:12.580Z,2.40
2022-10-07T17:49:41.348Z,1.92
2022-10-07T17:52:10.499Z,2.00
2022-10-07T17:54:39.939Z,2.05
2022-10-07T17:57:10.505Z,2.55
2022-10-07T17:59:40.385Z,2.30
2022-10-07T18:02:10.864Z,2.28
2022-10-07T18:04:40.221Z,2.47
2022-10-07T18:07:09.316Z,2.22
2022-10-07T18:09:39.943Z,2.15
2022-10-07T18:12:27.554Z,2.30
2022-10-07T18:15:13.043Z,4.25
2022-10-07T18:17:41.839Z,2.60
2022-10-07T18:20:15.010Z,2.05
2022-10-07T18:22:45.323Z,2.38
2022-10-07T18:25:13.675Z,2.40
2022-10-07T18:27:44.138Z,2.83
2022-10-07T18:30:13.539Z,3.28
2022-10-07T18:32:41.884Z,2.78
2022-10-07T18:35:11.380Z,2.80
2022-10-07T18:37:39.586Z,3.22
2022-10-07T18:40:09.599Z,2.70
2022-10-07T18:42:38.874Z,3.58
2022-10-07T18:45:10.425Z,6.80
2022-10-07T18:47:39.242Z,4.40
2022-10-07T18:50:08.889Z,5.43
2022-10-07T18:52:37.324Z,4.10
2022-10-07T18:55:06.719Z,5.40
2022-10-07T18:57:35.635Z,2.75
2022-10-07T19:00:04.191Z,3.47
2022-10-07T19:02:34.454Z,2.85
2022-10-07T19:05:02.774Z,3.28
2022-10-07T19:07:31.797Z,3.63
2022-10-07T19:10:00.903Z,3.58
2022-10-07T19:12:46.828Z,4.65
2022-10-07T19:17:47.536Z,14.65
2022-10-07T19:20:19.116Z,9.18
2022-10-07T19:22:48.035Z,6.90
2022-10-07T19:25:34.216Z,7.38
2022-10-07T19:28:03.452Z,7.93
2022-10-07T19:30:32.327Z,5.00
2022-10-07T19:33:02.939Z,5.30
2022-10-07T19:35:33.501Z,5.88
2022-10-07T19:38:04.828Z,4.40
2022-10-07T19:40:35.314Z,4.57
2022-10-07T19:43:06.642Z,4.50
2022-10-07T19:45:35.957Z,6.30
2022-10-07T19:48:13.121Z,8.55
2022-10-07T19:50:47.471Z,5.35
2022-10-07T19:53:17.203Z,6.82
2022-10-07T19:55:47.211Z,8.35
2022-10-07T19:58:17.442Z,8.95
2022-10-07T20:00:46.484Z,10.10
2022-10-07T20:03:17.687Z,7.80
2022-10-07T20:05:46.867Z,7.40
2022-10-07T20:08:18.559Z,10.88
2022-10-07T20:10:47.351Z,9.38
2022-10-07T20:13:18.443Z,6.57
2022-10-07T20:15:48.228Z,6.90
2022-10-07T20:18:19.666Z,4.85
2022-10-07T20:20:49.626Z,4.55
2022-10-07T20:23:18.789Z,4.15
2022-10-07T20:25:47.583Z,4.43
2022-10-07T20:28:16.606Z,4.55
2022-10-07T20:30:46.648Z,4.65
2022-10-07T20:33:15.790Z,3.70
2022-10-07T20:35:47.624Z,3.53
2022-10-07T20:38:16.530Z,2.53
2022-10-07T20:41:14.718Z,2.72
2022-10-07T20:43:43.887Z,2.60
2022-10-07T20:46:13.598Z,2.97
2022-10-07T20:48:45.619Z,3.28
2022-10-07T20:51:17.859Z,3.97
2022-10-07T20:53:50.135Z,3.80
2022-10-07T20:56:20.385Z,4.63
2022-10-07T20:58:49.442Z,5.03
2022-10-07T21:01:18.633Z,4.65
2022-10-07T21:03:47.383Z,3.72
2022-10-07T21:06:19.460Z,3.63
2022-10-07T21:08:48.581Z,2.80
2022-10-07T21:11:18.481Z,3.63
2022-10-07T21:13:47.877Z,3.97
2022-10-07T21:16:21.623Z,3.28
2022-10-07T21:18:50.884Z,3.15
2022-10-07T21:21:23.305Z,3.47
2022-10-07T21:23:53.185Z,3.45
2022-10-07T21:26:24.017Z,3.78
2022-10-07T21:28:53.176Z,3.58
2022-10-07T21:31:24.011Z,3.88
2022-10-07T21:33:54.128Z,3.30
2022-10-07T21:36:26.430Z,3.45
2022-10-07T21:39:00.008Z,3.15
2022-10-07T21:41:33.530Z,3.15
2022-10-07T21:44:03.385Z,3.13
2022-10-07T21:46:35.786Z,2.90
2022-10-07T21:49:06.382Z,3.90
2022-10-07T21:51:37.852Z,3.13
2022-10-07T21:54:07.337Z,3.20
2022-10-07T21:56:37.472Z,3.75
2022-10-07T21:59:07.106Z,3.17
2022-10-07T22:01:36.943Z,2.90
2022-10-07T22:04:07.600Z,2.50
2022-10-07T22:06:55.249Z,3.08
2022-10-07T22:09:24.633Z,3.00
2022-10-07T22:11:53.552Z,3.03
2022-10-07T22:14:24.049Z,3.13
2022-10-07T22:16:53.488Z,2.72
2022-10-07T22:19:24.120Z,3.53
2022-10-07T22:21:55.030Z,3.17
2022-10-07T22:24:24.774Z,3.05
2022-10-07T22:26:53.359Z,3.75
2022-10-07T22:29:23.979Z,3.53
2022-10-07T22:31:53.811Z,2.55
2022-10-07T22:34:43.619Z,2.70
2022-10-07T22:37:14.241Z,3.10
2022-10-07T22:39:43.503Z,4.35
2022-10-07T22:42:12.657Z,3.20
2022-10-07T22:44:42.550Z,3.47
2022-10-07T22:47:12.432Z,3.10
2022-10-07T22:49:42.232Z,3.58
2022-10-07T22:52:11.722Z,4.65
2022-10-07T22:54:43.541Z,3.28
2022-10-07T22:57:12.694Z,3.72
2022-10-07T22:59:41.867Z,3.15
2022-10-07T23:02:10.806Z,3.00
2022-10-07T23:04:40.530Z,2.97
2022-10-07T23:07:09.203Z,3.10
2022-10-07T23:09:38.846Z,3.33
2022-10-07T23:12:09.455Z,3.15
2022-10-07T23:14:38.844Z,3.22
2022-10-07T23:17:08.130Z,3.35
2022-10-07T23:19:36.822Z,2.67
2022-10-07T23:22:06.490Z,3.15
2022-10-07T23:24:35.884Z,3.08
2022-10-07T23:27:05.378Z,2.85
2022-10-07T23:29:35.382Z,3.05
2022-10-07T23:32:04.930Z,3.00
2022-10-07T23:34:34.317Z,2.47
2022-10-07T23:37:03.128Z,2.33
2022-10-07T23:39:32.158Z,3.08
2022-10-07T23:42:01.818Z,2.80
2022-10-07T23:44:31.563Z,3.00
2022-10-07T23:47:02.053Z,3.08
2022-10-07T23:49:31.916Z,3.08
2022-10-07T23:52:01.814Z,2.85
2022-10-07T23:54:30.514Z,3.42
2022-10-07T23:57:00.254Z,3.30
2022-10-07T23:59:29.684Z,3.22
